createdAt,value
2023-02-02T00:00:30.425Z,99152.28
2023-02-02T00:03:01.782Z,99157.69
2023-02-02T00:05:31.861Z,99161.31
2023-02-02T00:08:00.109Z,99169.03
2023-02-02T00:10:28.365Z,99167.72
2023-02-02T00:12:58.291Z,99173.66
2023-02-02T00:15:27.908Z,99180.56
2023-02-02T00:17:56.325Z,99183.81
2023-02-02T00:20:24.831Z,99189.06
2023-02-02T00:22:53.134Z,99193.88
2023-02-02T00:25:21.576Z,99187.94
2023-02-02T00:27:54.168Z,99189.75
2023-02-02T00:30:22.595Z,99194.84
2023-02-02T00:32:57.789Z,99197.78
2023-02-02T00:35:26.258Z,99205.53
2023-02-02T00:37:54.580Z,99208.81
2023-02-02T00:40:23.418Z,99212.41
2023-02-02T00:42:51.644Z,99224.41
2023-02-02T00:45:18.842Z,99231.50
2023-02-02T00:47:49.744Z,99227.69
2023-02-02T00:50:25.183Z,99241.03
2023-02-02T00:53:11.222Z,99240.00
2023-02-02T00:55:39.459Z,99241.84
2023-02-02T00:58:07.727Z,99247.56
2023-02-02T01:00:36.008Z,99260.88
2023-02-02T01:03:06.296Z,99254.28
2023-02-02T01:05:37.909Z,99263.34
2023-02-02T01:08:07.614Z,99265.63
2023-02-02T01:10:36.257Z,99277.78
2023-02-02T01:13:04.564Z,99273.81
2023-02-02T01:15:32.753Z,99286.44
2023-02-02T01:18:01.063Z,99308.81
2023-02-02T01:20:30.265Z,99311.69
2023-02-02T01:23:03.755Z,99306.09
2023-02-02T01:25:32.912Z,99316.09
2023-02-02T01:28:01.264Z,99325.44
2023-02-02T01:30:29.464Z,99332.00
2023-02-02T01:32:57.841Z,99326.38
2023-02-02T01:35:26.478Z,99321.78
2023-02-02T01:37:54.824Z,99337.03
2023-02-02T01:40:25.463Z,99337.72
2023-02-02T01:42:56.606Z,99344.59
2023-02-02T01:45:29.989Z,99353.81
2023-02-02T01:48:01.254Z,99349.88
2023-02-02T01:50:34.364Z,99347.59
2023-02-02T01:53:04.902Z,99356.97
2023-02-02T01:55:37.387Z,99356.41
2023-02-02T01:58:10.102Z,99370.84
2023-02-02T02:00:39.418Z,99371.59
2023-02-02T02:03:11.447Z,99379.63
2023-02-02T02:05:45.402Z,99380.25
2023-02-02T02:08:18.935Z,99385.81
2023-02-02T02:11:06.225Z,99392.34
2023-02-02T02:13:55.701Z,99396.25
2023-02-02T02:16:33.436Z,99406.22
2023-02-02T02:19:11.714Z,99404.59
2023-02-02T02:22:12.460Z,99415.75
2023-02-02T02:25:36.029Z,99419.06
2023-02-02T02:28:50.193Z,99430.53
2023-02-02T02:31:44.405Z,99422.94
2023-02-02T02:34:21.457Z,99436.84
2023-02-02T02:36:55.371Z,99437.28
2023-02-02T02:39:31.477Z,99441.88
2023-02-02T02:42:05.509Z,99446.13
2023-02-02T02:44:35.481Z,99450.41
2023-02-02T02:47:04.665Z,99437.44
2023-02-02T02:49:35.048Z,99451.25
2023-02-02T02:52:03.656Z,99452.50
2023-02-02T02:54:34.700Z,99451.19
2023-02-02T02:57:22.767Z,99454.59
2023-02-02T02:59:58.676Z,99470.88
2023-02-02T03:02:38.518Z,99481.00
2023-02-02T03:05:17.427Z,99487.66
2023-02-02T03:07:52.638Z,99491.19
2023-02-02T03:10:25.431Z,99495.97
2023-02-02T03:12:53.963Z,99495.59
2023-02-02T03:15:22.452Z,99512.47
2023-02-02T03:17:53.384Z,99513.97
2023-02-02T03:20:23.426Z,99508.03
2023-02-02T03:22:51.652Z,99502.56
2023-02-02T03:25:19.861Z,99518.06
2023-02-02T03:27:48.263Z,99529.22
2023-02-02T03:30:16.996Z,99528.56
2023-02-02T03:32:45.913Z,99528.56
2023-02-02T03:35:14.425Z,99533.66
2023-02-02T03:37:44.048Z,99543.59
2023-02-02T03:40:13.057Z,99552.44
2023-02-02T03:42:42.240Z,99551.47
2023-02-02T03:45:11.548Z,99553.94
2023-02-02T03:47:40.140Z,99559.34
2023-02-02T03:50:12.012Z,99568.44
2023-02-02T03:52:40.386Z,99578.84
2023-02-02T03:55:10.574Z,99593.50
2023-02-02T03:57:39.935Z,99589.97
2023-02-02T04:00:09.442Z,99598.00
2023-02-02T04:02:37.685Z,99602.97
2023-02-02T04:05:06.551Z,99605.91
2023-02-02T04:07:34.784Z,99619.56
2023-02-02T04:10:06.124Z,99613.91
2023-02-02T04:12:36.072Z,99623.00
2023-02-02T04:15:07.639Z,99628.81
2023-02-02T04:17:36.204Z,99634.88
2023-02-02T04:20:04.739Z,99637.75
2023-02-02T04:22:33.164Z,99638.03
2023-02-02T04:25:01.506Z,99644.66
2023-02-02T04:27:31.887Z,99654.16
2023-02-02T04:30:01.793Z,99660.19
2023-02-02T04:32:30.332Z,99660.75
2023-02-02T04:34:59.213Z,99657.31
2023-02-02T04:37:27.494Z,99677.16
2023-02-02T04:39:55.780Z,99675.22
2023-02-02T04:42:24.224Z,99676.59
2023-02-02T04:44:52.451Z,99682.94
2023-02-02T04:47:22.434Z,99690.78
2023-02-02T04:49:51.088Z,99691.22
2023-02-02T04:52:19.362Z,99701.13
2023-02-02T04:54:47.607Z,99702.78
2023-02-02T04:57:16.486Z,99711.84
2023-02-02T04:59:44.708Z,99716.63
2023-02-02T05:02:13.029Z,99722.28
2023-02-02T05:04:43.708Z,99718.59
2023-02-02T05:07:12.004Z,99728.22
2023-02-02T05:09:40.176Z,99729.56
2023-02-02T05:12:08.600Z,99741.84
2023-02-02T05:14:36.782Z,99745.53
2023-02-02T05:17:05.013Z,99740.16
2023-02-02T05:19:34.156Z,99756.81
2023-02-02T05:22:03.862Z,99765.47
2023-02-02T05:24:32.105Z,99769.38
2023-02-02T05:27:00.834Z,99777.22
2023-02-02T05:29:29.240Z,99783.41
2023-02-02T05:31:57.791Z,99795.78
2023-02-02T05:34:26.598Z,99796.44
2023-02-02T05:36:54.829Z,99810.91
2023-02-02T05:39:24.531Z,99811.56
2023-02-02T05:41:52.855Z,99823.81
2023-02-02T05:44:21.223Z,99828.34
2023-02-02T05:46:49.705Z,99830.25
2023-02-02T05:49:19.525Z,99836.81
2023-02-02T05:51:50.081Z,99841.34
2023-02-02T05:54:20.674Z,99852.91
2023-02-02T05:56:51.908Z,99866.25
2023-02-02T05:59:20.530Z,99860.00
2023-02-02T06:01:49.675Z,99862.41
2023-02-02T06:04:18.183Z,99873.38
2023-02-02T06:06:48.083Z,99880.50
2023-02-02T06:09:17.982Z,99884.91
2023-02-02T06:11:46.686Z,99879.22
2023-02-02T06:14:16.564Z,99879.09
2023-02-02T06:16:45.723Z,99893.69
2023-02-02T06:19:14.697Z,99894.41
2023-02-02T06:21:42.860Z,99894.53
2023-02-02T06:24:11.911Z,99894.66
2023-02-02T06:26:40.636Z,99899.06
2023-02-02T06:29:08.859Z,99912.94
2023-02-02T06:31:38.713Z,99907.66
2023-02-02T06:34:07.263Z,99917.97
2023-02-02T06:36:35.735Z,99920.84
2023-02-02T06:39:06.016Z,99931.28
2023-02-02T06:41:35.659Z,99931.53
2023-02-02T06:44:04.205Z,99935.91
2023-02-02T06:46:32.535Z,99941.66
2023-02-02T06:49:06.138Z,99944.84
2023-02-02T06:51:35.293Z,99959.00
2023-02-02T06:54:04.128Z,99961.47
2023-02-02T06:56:33.230Z,99963.28
2023-02-02T06:59:01.566Z,99971.09
2023-02-02T07:01:29.996Z,99970.03
2023-02-02T07:03:58.483Z,99973.25
2023-02-02T07:06:32.676Z,99987.16
2023-02-02T07:09:03.528Z,99985.72
2023-02-02T07:11:35.862Z,99993.06
2023-02-02T07:14:09.627Z,99987.84
2023-02-02T07:16:40.140Z,99999.03
2023-02-02T07:19:08.495Z,100002.97
2023-02-02T07:21:39.963Z,100017.31
2023-02-02T07:24:09.064Z,100026.59
2023-02-02T07:26:37.832Z,100026.94
2023-02-02T07:29:06.769Z,100045.94
2023-02-02T07:31:36.789Z,100048.28
2023-02-02T07:34:05.463Z,100057.31
2023-02-02T07:36:37.513Z,100065.25
2023-02-02T07:39:07.955Z,100062.75
2023-02-02T07:41:38.580Z,100060.47
2023-02-02T07:44:07.571Z,100058.69
2023-02-02T07:46:36.682Z,100070.09
2023-02-02T07:49:06.696Z,100069.63
2023-02-02T07:51:37.842Z,100066.63
2023-02-02T07:54:08.094Z,100077.66
2023-02-02T07:56:38.928Z,100085.50
2023-02-02T07:59:07.250Z,100089.53
2023-02-02T08:01:37.329Z,100082.31
2023-02-02T08:04:05.879Z,100089.59
2023-02-02T08:06:36.493Z,100093.84
2023-02-02T08:09:08.921Z,100100.38
2023-02-02T08:11:38.375Z,100110.50
2023-02-02T08:14:07.314Z,100123.31
2023-02-02T08:16:36.693Z,100120.56
2023-02-02T08:19:05.015Z,100132.56
2023-02-02T08:21:34.747Z,100141.25
2023-02-02T08:24:04.685Z,100147.78
2023-02-02T08:26:34.554Z,100154.69
2023-02-02T08:29:05.753Z,100159.91
2023-02-02T08:31:36.312Z,100160.50
2023-02-02T08:34:05.637Z,100164.91
2023-02-02T08:36:37.157Z,100177.84
2023-02-02T08:39:08.823Z,100183.66
2023-02-02T08:41:38.730Z,100197.00
2023-02-02T08:44:10.946Z,100195.91
2023-02-02T08:46:41.171Z,100201.53
2023-02-02T08:49:15.471Z,100202.00
2023-02-02T08:51:43.689Z,100214.72
2023-02-02T08:54:11.908Z,100212.69
2023-02-02T08:56:41.705Z,100215.75
2023-02-02T08:59:09.987Z,100220.63
2023-02-02T09:01:39.636Z,100229.75
2023-02-02T09:04:09.443Z,100235.44
2023-02-02T09:06:39.301Z,100237.91
2023-02-02T09:09:09.893Z,100244.22
2023-02-02T09:11:38.955Z,100245.16
2023-02-02T09:14:09.158Z,100246.59
2023-02-02T09:16:37.915Z,100256.38
2023-02-02T09:19:06.615Z,100254.13
2023-02-02T09:21:37.515Z,100259.56
2023-02-02T09:24:10.798Z,100264.47
2023-02-02T09:26:40.637Z,100262.50
2023-02-02T09:29:14.928Z,100264.06
2023-02-02T09:31:43.621Z,100261.81
2023-02-02T09:34:13.554Z,100256.75
2023-02-02T09:36:42.821Z,100271.13
2023-02-02T09:39:15.714Z,100274.59
2023-02-02T09:41:59.451Z,100283.63
2023-02-02T09:44:53.037Z,100286.38
2023-02-02T09:47:28.608Z,100292.31
2023-02-02T09:50:02.737Z,100302.53
2023-02-02T09:52:36.100Z,100313.41
2023-02-02T09:55:09.276Z,100308.63
2023-02-02T09:57:42.877Z,100311.72
2023-02-02T10:00:26.565Z,100303.97
2023-02-02T10:03:01.247Z,100315.88
2023-02-02T10:05:33.822Z,100326.22
2023-02-02T10:08:06.926Z,100332.06
2023-02-02T10:10:40.664Z,100336.94
2023-02-02T10:13:16.435Z,100337.41
2023-02-02T10:15:56.939Z,100334.69
2023-02-02T10:18:39.037Z,100344.19
2023-02-02T10:21:11.738Z,100354.06
2023-02-02T10:23:42.166Z,100347.88
2023-02-02T10:26:18.378Z,100359.69
2023-02-02T10:29:15.325Z,100354.31
2023-02-02T10:31:51.445Z,100356.34
2023-02-02T10:34:25.183Z,100362.91
2023-02-02T10:37:09.186Z,100352.03
2023-02-02T10:39:52.762Z,100359.22
2023-02-02T10:42:32.507Z,100354.53
2023-02-02T10:45:16.832Z,100358.94
2023-02-02T10:47:47.694Z,100365.72
2023-02-02T10:50:21.431Z,100370.59
2023-02-02T10:52:54.037Z,100373.22
2023-02-02T10:55:30.090Z,100367.03
2023-02-02T10:58:15.173Z,100365.38
2023-02-02T11:00:51.493Z,100370.13
2023-02-02T11:03:23.924Z,100373.81
2023-02-02T11:06:10.009Z,100371.56
2023-02-02T11:08:41.360Z,100370.03
2023-02-02T11:11:19.095Z,100369.06
2023-02-02T11:13:54.246Z,100371.19
2023-02-02T11:16:41.614Z,100373.34
2023-02-02T11:19:31.036Z,100377.75
2023-02-02T11:22:00.929Z,100379.66
2023-02-02T11:24:31.234Z,100387.91
2023-02-02T11:27:01.975Z,100392.28
2023-02-02T11:29:33.682Z,100396.59
2023-02-02T11:32:20.655Z,100400.00
2023-02-02T11:34:51.032Z,100398.22
2023-02-02T11:37:26.094Z,100398.59
2023-02-02T11:39:54.485Z,100398.34
2023-02-02T11:42:25.340Z,100402.75
2023-02-02T11:44:56.994Z,100405.00
2023-02-02T11:47:30.499Z,100396.91
2023-02-02T11:50:02.801Z,100401.69
2023-02-02T11:52:34.371Z,100392.03
2023-02-02T11:55:11.591Z,100402.13
2023-02-02T11:57:39.855Z,100411.22
2023-02-02T12:00:18.802Z,100408.59
2023-02-02T12:02:48.070Z,100411.44
2023-02-02T12:05:36.859Z,100414.28
2023-02-02T12:08:05.886Z,100415.84
2023-02-02T12:10:42.674Z,100416.69
2023-02-02T12:13:19.870Z,100418.34
2023-02-02T12:15:59.113Z,100414.41
2023-02-02T12:18:42.221Z,100412.84
2023-02-02T12:21:19.465Z,100417.25
2023-02-02T12:23:59.486Z,100437.59
2023-02-02T12:26:31.026Z,100432.00
2023-02-02T12:29:19.902Z,100434.50
2023-02-02T12:32:01.218Z,100442.22
2023-02-02T12:34:38.872Z,100452.72
2023-02-02T12:37:20.888Z,100446.41
2023-02-02T12:40:00.204Z,100442.84
2023-02-02T12:42:50.760Z,100437.59
2023-02-02T12:45:46.917Z,100451.66
2023-02-02T12:48:34.224Z,100461.19
2023-02-02T12:51:16.924Z,100454.84
2023-02-02T12:54:33.718Z,100462.22
2023-02-02T12:57:14.130Z,100461.03
2023-02-02T13:00:09.517Z,100472.69
2023-02-02T13:02:45.833Z,100470.66
2023-02-02T13:05:32.701Z,100455.88
2023-02-02T13:08:05.169Z,100465.19
2023-02-02T13:10:38.257Z,100462.41
2023-02-02T13:13:14.629Z,100469.31
2023-02-02T13:15:49.769Z,100460.50
2023-02-02T13:18:24.542Z,100477.19
2023-02-02T13:20:59.193Z,100475.88
2023-02-02T13:23:31.957Z,100490.91
2023-02-02T13:26:06.681Z,100489.34
2023-02-02T13:28:41.781Z,100500.91
2023-02-02T13:31:17.260Z,100503.94
2023-02-02T13:33:49.803Z,100501.06
2023-02-02T13:36:26.216Z,100515.59
2023-02-02T13:38:59.050Z,100514.75
2023-02-02T13:41:30.745Z,100519.88
2023-02-02T13:44:04.498Z,100520.00
2023-02-02T13:46:38.047Z,100528.47
2023-02-02T13:49:13.506Z,100523.00
2023-02-02T13:52:04.202Z,100521.31
2023-02-02T13:55:11.560Z,100528.59
2023-02-02T13:58:15.115Z,100539.09
2023-02-02T14:00:48.494Z,100545.28
2023-02-02T14:03:39.878Z,100544.47
2023-02-02T14:06:12.556Z,100540.28
2023-02-02T14:08:48.664Z,100542.22
2023-02-02T14:11:23.078Z,100545.91
2023-02-02T14:14:13.547Z,100544.84
2023-02-02T14:16:49.413Z,100542.34
2023-02-02T14:19:19.934Z,100552.72
2023-02-02T14:22:19.881Z,100558.91
2023-02-02T14:24:50.887Z,100552.13
2023-02-02T14:27:56.956Z,100552.00
2023-02-02T14:30:34.117Z,100564.41
2023-02-02T14:33:39.061Z,100566.19
2023-02-02T14:36:16.036Z,100573.34
2023-02-02T14:39:09.786Z,100571.66
2023-02-02T14:42:12.958Z,100575.50
2023-02-02T14:45:14.437Z,100573.00
2023-02-02T14:47:52.675Z,100573.94
2023-02-02T14:50:28.448Z,100580.03
2023-02-02T14:53:04.513Z,100573.34
2023-02-02T14:55:37.835Z,100581.44
2023-02-02T14:58:09.808Z,100578.94
2023-02-02T15:00:38.135Z,100588.88
2023-02-02T15:03:43.618Z,100595.75
2023-02-02T15:06:31.821Z,100596.84
2023-02-02T15:09:33.771Z,100592.66
2023-02-02T15:12:26.567Z,100599.09
2023-02-02T15:15:02.263Z,100594.47
2023-02-02T15:17:44.657Z,100606.13
2023-02-02T15:20:20.951Z,100601.22
2023-02-02T15:22:58.048Z,100598.84
2023-02-02T15:25:31.569Z,100600.88
2023-02-02T15:28:05.927Z,100606.34
2023-02-02T15:30:38.255Z,100604.06
2023-02-02T15:33:16.120Z,100600.13
2023-02-02T15:35:44.813Z,100611.78
2023-02-02T15:38:20.497Z,100615.47
2023-02-02T15:40:49.788Z,100626.22
2023-02-02T15:43:19.460Z,100632.72
2023-02-02T15:45:50.132Z,100636.63
2023-02-02T15:48:25.215Z,100641.41
2023-02-02T15:50:56.295Z,100634.81
2023-02-02T15:53:29.964Z,100637.66
2023-02-02T15:55:58.538Z,100648.50
2023-02-02T15:58:33.889Z,100653.94
2023-02-02T16:01:06.402Z,100668.09
2023-02-02T16:03:44.587Z,100658.66
2023-02-02T16:06:13.188Z,100658.19
2023-02-02T16:08:43.767Z,100671.19
2023-02-02T16:11:14.636Z,100671.72
2023-02-02T16:13:46.820Z,100677.28
2023-02-02T16:16:27.502Z,100679.50
2023-02-02T16:19:15.664Z,100689.97
2023-02-02T16:21:49.171Z,100686.72
2023-02-02T16:24:23.424Z,100689.47
2023-02-02T16:26:53.676Z,100701.13
2023-02-02T16:29:25.043Z,100694.53
2023-02-02T16:31:53.485Z,100695.56
2023-02-02T16:34:47.406Z,100700.94
2023-02-02T16:37:18.095Z,100698.44
2023-02-02T16:39:47.879Z,100691.63
2023-02-02T16:42:26.574Z,100687.22
2023-02-02T16:44:55.740Z,100690.78
2023-02-02T16:47:37.983Z,100684.91
2023-02-02T16:50:35.076Z,100690.78
2023-02-02T16:53:05.527Z,100696.13
2023-02-02T16:55:50.175Z,100694.44
2023-02-02T16:58:22.674Z,100691.94
2023-02-02T17:01:12.642Z,100703.44
2023-02-02T17:03:51.385Z,100698.44
2023-02-02T17:06:35.729Z,100702.13
2023-02-02T17:09:27.776Z,100683.06
2023-02-02T17:12:00.196Z,100689.97
2023-02-02T17:14:37.062Z,100684.00
2023-02-02T17:17:09.070Z,100680.03
2023-02-02T17:19:37.325Z,100686.00
2023-02-02T17:22:08.813Z,100694.69
2023-02-02T17:24:37.336Z,100699.06
2023-02-02T17:27:07.375Z,100702.63
2023-02-02T17:29:36.413Z,100704.50
2023-02-02T17:32:07.652Z,100710.56
2023-02-02T17:34:35.932Z,100706.19
2023-02-02T17:37:04.214Z,100692.41
2023-02-02T17:39:33.776Z,100682.78
2023-02-02T17:42:02.199Z,100685.41
2023-02-02T17:44:36.910Z,100693.09
2023-02-02T17:47:14.892Z,100682.88
2023-02-02T17:49:43.984Z,100692.50
2023-02-02T17:52:15.270Z,100691.56
2023-02-02T17:54:44.877Z,100689.16
2023-02-02T17:57:13.206Z,100704.13
2023-02-02T17:59:44.818Z,100694.06
2023-02-02T18:02:16.546Z,100702.88
2023-02-02T18:04:45.763Z,100702.03
2023-02-02T18:07:14.155Z,100707.38
2023-02-02T18:09:43.921Z,100701.41
2023-02-02T18:12:12.211Z,100709.25
2023-02-02T18:14:40.688Z,100731.22
2023-02-02T18:17:10.490Z,100723.91
2023-02-02T18:19:39.504Z,100730.91
2023-02-02T18:22:11.041Z,100721.38
2023-02-02T18:24:39.328Z,100718.78
2023-02-02T18:27:08.475Z,100723.16
2023-02-02T18:29:36.949Z,100725.03
2023-02-02T18:32:05.596Z,100724.41
2023-02-02T18:34:36.639Z,100715.00
2023-02-02T18:37:05.325Z,100716.06
2023-02-02T18:39:33.895Z,100710.09
2023-02-02T18:42:02.682Z,100695.66
2023-02-02T18:44:31.856Z,100699.84
2023-02-02T18:47:00.532Z,100704.13
2023-02-02T18:49:29.871Z,100702.66
2023-02-02T18:52:00.110Z,100703.69
2023-02-02T18:54:28.425Z,100687.41
2023-02-02T18:56:56.769Z,100692.63
2023-02-02T18:59:25.027Z,100691.88
2023-02-02T19:01:53.346Z,100693.66
2023-02-02T19:04:21.714Z,100700.75
2023-02-02T19:07:07.436Z,100693.22
2023-02-02T19:09:37.300Z,100686.56
2023-02-02T19:12:14.005Z,100668.34
2023-02-02T19:14:43.395Z,100662.41
2023-02-02T19:17:22.371Z,100660.81
2023-02-02T19:19:51.253Z,100674.72
2023-02-02T19:22:22.063Z,100678.28
2023-02-02T19:24:52.457Z,100683.91
2023-02-02T19:27:24.117Z,100690.09
2023-02-02T19:29:55.912Z,100692.69
2023-02-02T19:32:26.995Z,100696.97
2023-02-02T19:34:58.738Z,100688.31
2023-02-02T19:37:29.367Z,100688.19
2023-02-02T19:40:15.712Z,100683.78
2023-02-02T19:42:46.497Z,100674.91
2023-02-02T19:45:22.753Z,100676.50
2023-02-02T19:47:52.682Z,100672.09
2023-02-02T19:50:24.529Z,100681.53
2023-02-02T19:52:54.624Z,100672.00
2023-02-02T19:55:27.219Z,100674.44
2023-02-02T19:58:00.943Z,100679.66
2023-02-02T20:00:33.778Z,100680.69
2023-02-02T20:03:05.484Z,100671.81
2023-02-02T20:05:36.255Z,100673.47
2023-02-02T20:08:10.049Z,100661.84
2023-02-02T20:10:44.453Z,100667.06
2023-02-02T20:13:19.882Z,100659.34
2023-02-02T20:15:50.400Z,100664.56
2023-02-02T20:18:21.134Z,100656.81
2023-02-02T20:20:56.292Z,100660.41
2023-02-02T20:23:42.278Z,100654.53
2023-02-02T20:26:22.350Z,100651.09
2023-02-02T20:28:51.601Z,100650.34
2023-02-02T20:31:22.593Z,100658.94
2023-02-02T20:33:53.736Z,100657.16
2023-02-02T20:36:32.138Z,100660.59
2023-02-02T20:39:13.402Z,100659.78
2023-02-02T20:41:44.002Z,100661.63
2023-02-02T20:44:12.540Z,100664.34
2023-02-02T20:46:42.054Z,100659.13
2023-02-02T20:49:10.589Z,100656.63
2023-02-02T20:51:41.065Z,100653.06
2023-02-02T20:54:09.456Z,100655.69
2023-02-02T20:56:38.194Z,100651.28
2023-02-02T20:59:07.916Z,100657.44
2023-02-02T21:01:36.665Z,100659.13
2023-02-02T21:04:07.303Z,100657.25
2023-02-02T21:06:35.773Z,100657.25
2023-02-02T21:09:04.799Z,100657.44
2023-02-02T21:11:33.408Z,100653.25
2023-02-02T21:14:02.387Z,100650.97
2023-02-02T21:16:32.212Z,100650.25
2023-02-02T21:19:00.595Z,100640.09
2023-02-02T21:21:29.085Z,100646.16
2023-02-02T21:23:57.523Z,100645.13
2023-02-02T21:26:30.809Z,100643.44
2023-02-02T21:28:59.760Z,100639.88
2023-02-02T21:31:29.119Z,100632.34
2023-02-02T21:33:58.905Z,100638.50
2023-02-02T21:36:32.795Z,100638.31
2023-02-02T21:39:07.908Z,100637.56
2023-02-02T21:41:39.106Z,100635.91
2023-02-02T21:44:13.819Z,100637.66
2023-02-02T21:46:42.376Z,100635.91
2023-02-02T21:49:37.320Z,100641.13
2023-02-02T21:52:19.585Z,100648.25
2023-02-02T21:54:48.982Z,100641.44
2023-02-02T21:57:20.435Z,100645.94
2023-02-02T21:59:54.162Z,100639.22
2023-02-02T22:02:39.288Z,100636.50
2023-02-02T22:05:21.255Z,100631.09
2023-02-02T22:07:53.520Z,100621.41
2023-02-02T22:10:36.110Z,100622.31
2023-02-02T22:13:15.338Z,100608.44
2023-02-02T22:15:46.192Z,100606.03
2023-02-02T22:18:18.669Z,100602.66
2023-02-02T22:20:50.754Z,100605.19
2023-02-02T22:23:21.394Z,100610.41
2023-02-02T22:25:51.762Z,100610.41
2023-02-02T22:28:22.510Z,100603.59
2023-02-02T22:30:52.114Z,100603.72
2023-02-02T22:33:20.489Z,100605.38
2023-02-02T22:35:50.857Z,100607.16
2023-02-02T22:38:20.671Z,100607.25
2023-02-02T22:40:50.093Z,100596.72
2023-02-02T22:43:20.096Z,100584.81
2023-02-02T22:45:49.189Z,100598.38
2023-02-02T22:48:18.957Z,100595.78
2023-02-02T22:50:47.463Z,100596.63
2023-02-02T22:53:17.159Z,100594.84
2023-02-02T22:55:45.391Z,100592.22
2023-02-02T22:58:15.207Z,100584.28
2023-02-02T23:00:45.169Z,100592.31
2023-02-02T23:03:13.409Z,100596.22
2023-02-02T23:05:42.425Z,100590.47
2023-02-02T23:08:10.672Z,100595.47
2023-02-02T23:10:40.431Z,100598.09
2023-02-02T23:13:10.274Z,100586.91
2023-02-02T23:15:38.574Z,100585.22
2023-02-02T23:18:06.998Z,100572.19
2023-02-02T23:20:35.312Z,100576.56
2023-02-02T23:23:03.600Z,100578.22
2023-02-02T23:25:31.923Z,100563.00
2023-02-02T23:28:01.752Z,100577.59
2023-02-02T23:30:37.101Z,100572.47
2023-02-02T23:33:05.521Z,100561.44
2023-02-02T23:35:34.003Z,100547.94
2023-02-02T23:38:02.266Z,100542.72
2023-02-02T23:40:30.619Z,100540.28
2023-02-02T23:42:58.880Z,100542.19
2023-02-02T23:45:28.615Z,100538.13
2023-02-02T23:47:56.880Z,100541.75
2023-02-02T23:50:26.531Z,100538.63
2023-02-02T23:52:55.303Z,100521.06
2023-02-02T23:55:23.753Z,100511.69
2023-02-02T23:57:52.029Z,100509.19
